createdAt,value
2022-08-28T00:01:54.685Z,29.00
2022-08-28T00:07:11.346Z,32.00
2022-08-28T00:12:23.975Z,27.70
2022-08-28T00:17:26.058Z,27.80
2022-08-28T00:22:28.588Z,28.90
2022-08-28T00:27:49.165Z,28.90
2022-08-28T00:32:54.017Z,27.80
2022-08-28T00:37:57.736Z,29.40
2022-08-28T00:43:22.449Z,27.40
2022-08-28T00:48:36.324Z,30.60
2022-08-28T00:53:38.800Z,30.70
2022-08-28T00:59:05.311Z,28.20
2022-08-28T01:04:24.023Z,33.20
2022-08-28T01:09:30.716Z,29.40
2022-08-28T01:14:36.486Z,32.70
2022-08-28T01:19:44.337Z,30.40
2022-08-28T01:24:48.712Z,30.20
2022-08-28T01:29:50.821Z,34.40
2022-08-28T01:34:52.735Z,39.50
2022-08-28T01:39:54.902Z,38.10
2022-08-28T01:44:57.054Z,32.60
2022-08-28T01:49:59.841Z,33.20
2022-08-28T01:55:02.487Z,32.00
2022-08-28T02:00:08.019Z,37.20
2022-08-28T02:10:24.887Z,33.70
2022-08-28T02:15:29.062Z,33.10
2022-08-28T02:20:39.388Z,32.20
2022-08-28T02:25:54.843Z,31.80
2022-08-28T02:30:57.011Z,32.60
2022-08-28T02:35:59.391Z,32.10
2022-08-28T02:41:01.443Z,28.30
2022-08-28T02:46:07.187Z,29.60
2022-08-28T02:51:13.702Z,31.80
2022-08-28T02:56:16.087Z,35.30
2022-08-28T03:01:18.058Z,28.80
2022-08-28T03:06:20.968Z,29.70
2022-08-28T03:11:23.554Z,33.80
2022-08-28T03:16:27.213Z,26.50
2022-08-28T03:21:35.916Z,29.90
2022-08-28T03:26:38.001Z,31.80
2022-08-28T03:31:40.003Z,29.30
2022-08-28T03:36:42.081Z,33.10
2022-08-28T03:41:44.372Z,34.40
2022-08-28T03:46:46.635Z,33.80
2022-08-28T03:51:49.484Z,33.50
2022-08-28T03:56:52.440Z,33.00
2022-08-28T04:01:55.322Z,33.20
2022-08-28T04:06:59.170Z,32.40
2022-08-28T04:12:01.245Z,33.40
2022-08-28T04:17:03.875Z,31.50
2022-08-28T04:22:06.127Z,34.10
2022-08-28T04:27:09.027Z,36.40
2022-08-28T04:32:11.065Z,30.90
2022-08-28T04:37:13.273Z,31.20
2022-08-28T04:42:15.461Z,33.80
2022-08-28T04:47:17.560Z,30.90
2022-08-28T04:52:39.408Z,30.40
2022-08-28T04:57:42.977Z,28.40
2022-08-28T05:02:45.212Z,34.10
2022-08-28T05:07:47.292Z,28.90
2022-08-28T05:12:50.605Z,33.10
2022-08-28T05:17:52.795Z,28.00
2022-08-28T05:22:54.768Z,31.00
2022-08-28T05:27:56.752Z,34.90
2022-08-28T05:33:00.160Z,30.00
2022-08-28T05:38:02.138Z,33.30
2022-08-28T05:43:04.146Z,36.40
2022-08-28T05:48:07.264Z,43.60
2022-08-28T05:53:09.617Z,41.10
2022-08-28T05:58:30.131Z,39.10
2022-08-28T06:03:32.210Z,54.50
2022-08-28T06:08:35.347Z,48.60
2022-08-28T06:13:38.326Z,44.00
2022-08-28T06:18:42.140Z,49.90
2022-08-28T06:23:44.640Z,50.20
2022-08-28T06:29:06.309Z,49.90
2022-08-28T06:34:21.810Z,47.10
2022-08-28T06:39:26.966Z,47.00
2022-08-28T06:44:29.019Z,42.50
2022-08-28T06:49:31.296Z,44.70
2022-08-28T06:54:33.453Z,42.20
2022-08-28T06:59:36.079Z,36.20
2022-08-28T07:04:38.482Z,37.90
2022-08-28T07:09:40.761Z,34.30
2022-08-28T07:14:46.112Z,37.10
2022-08-28T07:19:48.539Z,40.10
2022-08-28T07:25:11.372Z,43.30
2022-08-28T07:30:20.319Z,32.40
2022-08-28T07:35:23.694Z,30.00
2022-08-28T07:40:36.449Z,32.30
2022-08-28T07:45:42.530Z,31.20
2022-08-28T07:50:44.660Z,33.60
2022-08-28T07:56:06.365Z,30.30
2022-08-28T08:01:15.140Z,27.20
2022-08-28T08:06:17.693Z,29.90
2022-08-28T08:11:21.024Z,29.30
2022-08-28T08:16:26.362Z,28.00
2022-08-28T08:21:30.396Z,28.40
2022-08-28T08:26:58.774Z,26.80
2022-08-28T08:32:15.956Z,24.20
2022-08-28T08:37:18.010Z,25.70
2022-08-28T08:42:32.301Z,26.30
2022-08-28T08:47:43.852Z,26.50
2022-08-28T08:52:58.048Z,26.50
2022-08-28T08:58:25.426Z,23.40
2022-08-28T09:03:48.660Z,24.10
2022-08-28T09:09:00.108Z,26.60
2022-08-28T09:14:12.018Z,24.20
2022-08-28T09:19:19.652Z,23.60
2022-08-28T09:24:29.299Z,25.90
2022-08-28T09:29:35.787Z,26.10
2022-08-28T09:34:39.281Z,30.20
2022-08-28T09:39:43.714Z,27.00
2022-08-28T09:44:53.703Z,28.90
2022-08-28T09:49:55.908Z,28.20
2022-08-28T09:54:58.269Z,41.00
2022-08-28T10:00:00.454Z,38.00
2022-08-28T10:05:16.238Z,34.90
2022-08-28T10:15:43.744Z,33.10
2022-08-28T10:20:49.773Z,31.10
2022-08-28T10:26:09.881Z,36.10
2022-08-28T10:31:50.535Z,32.70
2022-08-28T10:37:12.785Z,33.60
2022-08-28T10:42:23.573Z,30.40
2022-08-28T10:47:31.494Z,27.20
2022-08-28T10:52:41.775Z,29.40
2022-08-28T10:57:56.650Z,28.40
2022-08-28T11:03:04.760Z,29.20
2022-08-28T11:08:12.770Z,27.80
2022-08-28T11:13:46.823Z,27.10
2022-08-28T11:18:58.017Z,22.20
2022-08-28T11:24:09.595Z,24.40
2022-08-28T11:42:50.338Z,35.80
2022-08-28T11:48:00.924Z,24.00
2022-08-28T11:53:38.064Z,27.30
2022-08-28T19:34:32.967Z,16.10
2022-08-28T19:39:41.127Z,18.50
2022-08-28T19:45:01.179Z,16.50
2022-08-28T19:50:11.349Z,19.20
2022-08-28T19:55:17.733Z,19.00
2022-08-28T20:00:23.296Z,25.60
2022-08-28T20:05:25.688Z,24.00
2022-08-28T20:10:27.713Z,26.50
2022-08-28T20:15:30.117Z,23.00
2022-08-28T20:20:32.028Z,26.20
2022-08-28T20:25:34.953Z,30.70
2022-08-28T20:30:38.491Z,30.70
2022-08-28T20:35:40.512Z,26.00
2022-08-28T20:40:43.068Z,28.50
2022-08-28T20:45:45.266Z,27.00
2022-08-28T20:50:48.325Z,25.00
2022-08-28T20:55:57.471Z,29.80
2022-08-28T21:00:59.867Z,23.50
2022-08-28T21:06:02.011Z,31.60
2022-08-28T21:11:03.973Z,27.70
2022-08-28T21:16:06.431Z,28.70
2022-08-28T21:21:09.606Z,36.50
2022-08-28T21:26:12.751Z,33.20
2022-08-28T21:31:15.475Z,34.40
2022-08-28T21:36:37.689Z,30.50
2022-08-28T21:41:54.794Z,32.90
2022-08-28T21:46:56.767Z,33.50
2022-08-28T21:52:01.223Z,34.30
2022-08-28T21:57:03.241Z,34.30
2022-08-28T22:02:08.175Z,32.60
2022-08-28T22:07:12.175Z,42.80
2022-08-28T23:12:37.530Z,29.10
2022-08-28T23:17:39.303Z,27.90
2022-08-28T23:22:43.054Z,26.60
2022-08-28T23:27:45.668Z,31.10
2022-08-28T23:33:08.506Z,27.40
2022-08-28T23:38:10.557Z,31.90
2022-08-28T23:43:15.111Z,32.50
2022-08-28T23:48:17.907Z,24.50
2022-08-28T23:53:19.931Z,29.90
2022-08-28T23:58:22.456Z,30.50
